Time;durP1;ratioP1;P1;durP2;ratioP2;P2;SDS_P1;SDS_P2;PMS_P1;PMS_P2;Temp;Humidity;BMP_temperature;BMP_pressure;BME280_temperature;BME280_humidity;BME280_pressure;Samples;Min_cycle;Max_cycle;Signal;HPM_P1;HPM_P2
2022/12/04 00:01:03;;;;;;;2.50;2.40;;;2.00;99.90;;;;;;4931723;28;20208;-65
2022/12/04 00:03:30;;;;;;;2.70;2.60;;;2.10;99.90;;;;;;4925000;29;20234;-64
2022/12/04 00:06:03;;;;;;;2.47;2.37;;;2.10;99.90;;;;;;4929894;29;20228;-64
2022/12/04 00:08:30;;;;;;;2.77;2.57;;;2.10;99.90;;;;;;4931653;28;20204;-62
2022/12/04 00:10:58;;;;;;;2.87;2.67;;;2.10;99.90;;;;;;4931745;29;20207;-65
2022/12/04 00:13:25;;;;;;;2.37;2.27;;;2.10;99.90;;;;;;4931388;28;20204;-64
2022/12/04 00:15:53;;;;;;;2.40;2.30;;;2.20;99.90;;;;;;4932037;29;20247;-63
2022/12/04 00:18:20;;;;;;;3.37;2.60;;;2.20;99.90;;;;;;4931657;29;20219;-64
2022/12/04 00:20:48;;;;;;;3.03;2.83;;;2.20;99.90;;;;;;4931860;29;20295;-61
2022/12/04 00:23:15;;;;;;;2.87;2.70;;;2.00;99.90;;;;;;4931720;29;20223;-66
2022/12/04 00:25:42;;;;;;;3.10;2.90;;;2.00;99.90;;;;;;4931139;29;20223;-62
2022/12/04 00:28:09;;;;;;;3.00;2.80;;;2.00;99.90;;;;;;4930807;29;20205;-64
2022/12/04 00:30:40;;;;;;;3.03;2.83;;;2.10;99.90;;;;;;4930565;28;20652;-64
2022/12/04 00:33:08;;;;;;;2.87;2.77;;;2.10;99.90;;;;;;4930561;29;20722;-63
2022/12/04 00:35:35;;;;;;;2.50;2.40;;;2.10;99.90;;;;;;4926857;29;20235;-63
2022/12/04 00:38:01;;;;;;;2.30;2.20;;;2.20;99.90;;;;;;4930243;29;20218;-64
2022/12/04 00:40:28;;;;;;;1.83;1.73;;;2.20;99.90;;;;;;4930026;29;20323;-65
2022/12/04 00:42:55;;;;;;;2.10;2.00;;;2.10;99.90;;;;;;4930232;29;20554;-63
2022/12/04 00:45:22;;;;;;;2.20;2.10;;;2.00;99.90;;;;;;4933773;29;20227;-63
2022/12/04 00:47:49;;;;;;;2.10;2.00;;;2.00;99.90;;;;;;4934847;29;20204;-63
2022/12/04 00:50:17;;;;;;;2.40;2.30;;;1.90;99.90;;;;;;4934887;29;20209;-63
2022/12/04 00:52:44;;;;;;;2.40;2.30;;;1.90;99.90;;;;;;4935760;29;20314;-63
2022/12/04 00:55:11;;;;;;;2.40;2.30;;;2.00;99.90;;;;;;4935329;29;20220;-64
2022/12/04 00:57:37;;;;;;;3.07;2.87;;;2.00;99.90;;;;;;4935242;28;20306;-63
2022/12/04 01:00:06;;;;;;;2.63;2.43;;;2.00;99.90;;;;;;4935039;29;20260;-62
2022/12/04 01:02:33;;;;;;;2.50;2.40;;;1.80;99.90;;;;;;4934474;29;20212;-63
2022/12/04 01:05:01;;;;;;;2.47;2.37;;;1.80;99.90;;;;;;4931683;29;20208;-64
2022/12/04 01:07:29;;;;;;;2.30;2.20;;;1.70;99.90;;;;;;4932963;28;20642;-63
2022/12/04 01:09:56;;;;;;;2.10;2.00;;;1.60;99.90;;;;;;4934566;29;20235;-63
2022/12/04 01:12:23;;;;;;;2.37;2.27;;;1.70;99.90;;;;;;4934244;29;20687;-63
2022/12/04 01:14:50;;;;;;;2.30;2.20;;;1.70;99.90;;;;;;4934595;29;20636;-63
2022/12/04 01:17:17;;;;;;;2.20;2.10;;;1.80;99.90;;;;;;4938940;28;20319;-62
2022/12/04 01:19:44;;;;;;;2.03;1.93;;;1.90;99.90;;;;;;4943722;28;20224;-65
2022/12/04 01:22:11;;;;;;;1.93;1.83;;;1.90;99.90;;;;;;4934467;28;20200;-65
2022/12/04 01:24:39;;;;;;;2.17;2.07;;;2.00;99.90;;;;;;4934156;29;20295;-64
2022/12/04 01:27:06;;;;;;;2.23;2.13;;;2.00;99.90;;;;;;4935755;28;20243;-63
2022/12/04 01:29:33;;;;;;;2.47;2.37;;;2.10;99.90;;;;;;4938359;29;20853;-63
2022/12/04 01:32:00;;;;;;;2.13;2.03;;;2.00;99.90;;;;;;4929542;28;20209;-64
2022/12/04 01:34:26;;;;;;;2.10;2.00;;;2.00;99.90;;;;;;4934453;28;20205;-63
2022/12/04 01:36:53;;;;;;;2.03;1.93;;;2.10;99.90;;;;;;4933727;29;20228;-63
2022/12/04 01:39:20;;;;;;;2.40;2.30;;;2.20;99.90;;;;;;4933082;28;20227;-63
2022/12/04 01:41:48;;;;;;;2.03;1.93;;;2.30;99.90;;;;;;4933842;28;20307;-63
2022/12/04 01:44:17;;;;;;;2.40;2.30;;;2.30;99.90;;;;;;4933181;28;20204;-65
2022/12/04 01:46:46;;;;;;;2.30;2.10;;;2.20;99.90;;;;;;4933799;29;20255;-63
2022/12/04 01:49:17;;;;;;;2.20;2.10;;;2.30;99.90;;;;;;4934349;28;20218;-64
2022/12/04 01:51:48;;;;;;;1.73;1.70;;;2.20;99.90;;;;;;4933574;29;20250;-63
2022/12/04 01:54:18;;;;;;;2.10;2.00;;;2.30;99.90;;;;;;4931516;28;20218;-65
2022/12/04 01:56:50;;;;;;;2.07;1.97;;;2.20;99.90;;;;;;4932335;29;20299;-62
2022/12/04 01:59:19;;;;;;;2.00;1.90;;;2.30;99.90;;;;;;4932823;29;20924;-65
2022/12/04 02:01:52;;;;;;;2.10;2.00;;;2.20;99.90;;;;;;4933471;29;20208;-64
2022/12/04 02:04:19;;;;;;;2.10;1.90;;;2.10;99.90;;;;;;4932781;28;20691;-64
2022/12/04 02:06:46;;;;;;;1.97;1.87;;;2.00;99.90;;;;;;4933423;29;20308;-63
2022/12/04 02:09:13;;;;;;;1.97;1.87;;;2.00;99.90;;;;;;4933193;29;20232;-63
2022/12/04 02:11:46;;;;;;;1.90;1.80;;;2.00;99.90;;;;;;4933511;29;20218;-63
2022/12/04 02:14:25;;;;;;;2.20;2.10;;;2.00;99.90;;;;;;4932942;29;20236;-64
2022/12/04 02:17:01;;;;;;;2.17;2.07;;;2.10;99.90;;;;;;4928479;29;20240;-61
2022/12/04 02:19:51;;;;;;;1.90;1.80;;;2.10;99.90;;;;;;4933251;29;20296;-63
2022/12/04 02:22:30;;;;;;;2.00;1.90;;;2.10;99.90;;;;;;4933053;28;20218;-63
2022/12/04 02:25:00;;;;;;;1.90;1.80;;;2.10;99.90;;;;;;4932955;29;20207;-63
2022/12/04 02:27:47;;;;;;;2.00;1.90;;;2.20;99.90;;;;;;4933165;29;20295;-63
2022/12/04 02:30:15;;;;;;;2.07;1.97;;;2.40;99.90;;;;;;4933108;29;20286;-63
2022/12/04 02:32:45;;;;;;;2.00;1.90;;;2.40;99.90;;;;;;4934987;29;20226;-63
2022/12/04 02:35:16;;;;;;;1.90;1.80;;;2.60;99.90;;;;;;4933208;29;20234;-64
2022/12/04 02:37:46;;;;;;;1.90;1.80;;;2.60;99.90;;;;;;4930104;29;20224;-63
2022/12/04 02:40:20;;;;;;;1.90;1.80;;;2.60;99.90;;;;;;4929759;29;20326;-64
2022/12/04 02:42:55;;;;;;;2.10;2.00;;;2.60;99.90;;;;;;4932717;29;20613;-63
2022/12/04 02:45:26;;;;;;;2.10;2.00;;;2.60;99.90;;;;;;4933025;29;20232;-63
2022/12/04 02:47:55;;;;;;;1.90;1.80;;;2.60;99.90;;;;;;4933738;29;20287;-62
2022/12/04 02:50:24;;;;;;;2.17;2.07;;;2.60;99.90;;;;;;4933380;29;20215;-64
2022/12/04 02:52:54;;;;;;;2.10;2.00;;;2.60;99.90;;;;;;4933446;28;20616;-63
2022/12/04 02:55:25;;;;;;;1.90;1.80;;;2.60;99.90;;;;;;4932729;29;20231;-64
2022/12/04 02:57:59;;;;;;;2.20;2.10;;;2.60;99.90;;;;;;4932495;29;20641;-64
2022/12/04 03:00:27;;;;;;;2.10;2.00;;;2.60;99.90;;;;;;4932248;29;20235;-63
2022/12/04 03:02:59;;;;;;;1.80;1.70;;;2.60;99.90;;;;;;4932427;28;20204;-65
2022/12/04 03:05:33;;;;;;;1.80;1.70;;;2.70;99.90;;;;;;4933229;29;20251;-64
2022/12/04 03:08:04;;;;;;;1.70;1.60;;;2.80;99.90;;;;;;4934018;28;20214;-63
2022/12/04 03:10:34;;;;;;;1.80;1.70;;;2.80;99.90;;;;;;4929357;29;20299;-65
2022/12/04 03:13:08;;;;;;;2.10;2.00;;;2.90;99.90;;;;;;4933477;28;20214;-63
2022/12/04 03:15:40;;;;;;;2.17;2.07;;;3.00;99.90;;;;;;4932865;28;20693;-64
2022/12/04 03:18:14;;;;;;;2.03;1.93;;;3.00;99.90;;;;;;4929790;29;20262;-63
2022/12/04 03:20:43;;;;;;;2.10;2.00;;;2.90;99.90;;;;;;4932900;29;20227;-63
2022/12/04 03:23:14;;;;;;;1.87;1.77;;;2.80;99.90;;;;;;4932569;29;20204;-63
2022/12/04 03:25:48;;;;;;;2.00;1.90;;;2.90;99.90;;;;;;4934788;29;20591;-65
2022/12/04 03:28:22;;;;;;;2.07;1.97;;;2.90;99.90;;;;;;4945846;29;20200;-63
2022/12/04 03:30:53;;;;;;;2.10;2.00;;;2.90;99.90;;;;;;4935115;29;20203;-65
2022/12/04 03:33:27;;;;;;;2.10;2.00;;;2.90;99.90;;;;;;4931829;29;20208;-62
2022/12/04 03:35:59;;;;;;;1.80;1.70;;;2.90;99.90;;;;;;4932042;29;20234;-64
2022/12/04 03:38:33;;;;;;;2.00;1.90;;;3.00;99.90;;;;;;4932026;29;20208;-63
2022/12/04 03:41:05;;;;;;;2.00;1.90;;;2.90;99.90;;;;;;4931698;29;20232;-63
2022/12/04 03:43:39;;;;;;;1.90;1.80;;;2.90;99.90;;;;;;4930889;29;20218;-62
2022/12/04 03:46:12;;;;;;;2.10;2.00;;;3.00;99.90;;;;;;4931462;29;20230;-63
2022/12/04 03:48:42;;;;;;;2.20;2.10;;;3.00;99.90;;;;;;4931279;29;20204;-62
2022/12/04 03:51:14;;;;;;;2.10;2.00;;;2.90;99.90;;;;;;4931177;29;20214;-62
2022/12/04 03:53:47;;;;;;;2.10;2.00;;;3.00;99.90;;;;;;4931557;29;20208;-64
2022/12/04 03:56:18;;;;;;;2.20;2.10;;;3.00;99.90;;;;;;4931702;28;20239;-64
2022/12/04 03:58:49;;;;;;;2.10;2.00;;;3.10;99.90;;;;;;4931308;29;20208;-62
2022/12/04 04:01:20;;;;;;;1.80;1.70;;;3.10;99.90;;;;;;4931064;28;20359;-64
2022/12/04 04:03:50;;;;;;;2.10;2.00;;;3.20;99.90;;;;;;4930982;29;20210;-63
2022/12/04 04:06:21;;;;;;;1.97;1.87;;;3.20;99.90;;;;;;4931287;28;20228;-64
2022/12/04 04:08:52;;;;;;;2.10;2.00;;;3.20;99.90;;;;;;4931169;29;20212;-63
2022/12/04 04:11:23;;;;;;;2.30;2.20;;;3.10;99.90;;;;;;4930875;28;20210;-63
2022/12/04 04:25:07;;;;;;;1.70;1.60;;;3.00;99.90;;;;;;4932005;29;20269;-63
2022/12/04 04:27:34;;;;;;;2.10;2.00;;;3.00;99.90;;;;;;4934794;29;20558;-63
2022/12/04 04:30:02;;;;;;;2.07;1.97;;;3.00;99.90;;;;;;4931271;29;20200;-65
2022/12/04 04:32:35;;;;;;;2.03;1.93;;;3.00;99.90;;;;;;4927178;29;20705;-62
2022/12/04 04:35:10;;;;;;;2.40;2.30;;;3.00;99.90;;;;;;4934920;28;20224;-65
2022/12/04 04:37:45;;;;;;;1.83;1.73;;;3.10;99.90;;;;;;4928186;29;20203;-64
2022/12/04 04:40:19;;;;;;;2.17;2.07;;;3.00;99.90;;;;;;4934699;29;20250;-62
2022/12/04 04:42:49;;;;;;;2.20;2.10;;;3.00;99.90;;;;;;4933962;29;20219;-63
2022/12/04 04:45:21;;;;;;;2.07;1.97;;;3.00;99.90;;;;;;4934008;29;20247;-64
2022/12/04 04:47:52;;;;;;;1.90;1.80;;;3.10;99.90;;;;;;4934540;29;20223;-64
2022/12/04 04:50:21;;;;;;;1.90;1.80;;;3.00;99.90;;;;;;4933930;29;20257;-65
2022/12/04 04:52:51;;;;;;;2.10;2.00;;;3.10;99.90;;;;;;4933369;29;20660;-63
2022/12/04 04:55:19;;;;;;;2.03;1.93;;;3.10;99.90;;;;;;4932986;29;20234;-64
2022/12/04 04:57:46;;;;;;;2.10;2.00;;;3.10;99.90;;;;;;4935846;29;20204;-64
2022/12/04 05:00:19;;;;;;;2.13;2.03;;;3.10;99.90;;;;;;4936655;29;20227;-64
2022/12/04 05:02:47;;;;;;;2.17;2.07;;;3.10;99.90;;;;;;4933757;28;20561;-65
2022/12/04 05:05:14;;;;;;;1.83;1.73;;;3.10;99.90;;;;;;4933476;28;20227;-65
2022/12/04 05:07:41;;;;;;;2.30;2.20;;;3.20;99.90;;;;;;4933218;29;20204;-63
2022/12/04 05:10:10;;;;;;;2.03;1.93;;;3.20;99.90;;;;;;4933296;29;20215;-62
2022/12/04 05:12:36;;;;;;;2.00;1.90;;;3.30;99.90;;;;;;4933023;28;20728;-62
2022/12/04 05:15:04;;;;;;;1.80;1.70;;;3.30;99.90;;;;;;4933733;28;20211;-64
2022/12/04 05:17:34;;;;;;;2.00;1.90;;;3.30;99.90;;;;;;4932747;29;20573;-63
2022/12/04 05:20:00;;;;;;;2.10;2.00;;;3.40;99.90;;;;;;4933362;28;20224;-64
2022/12/04 05:22:29;;;;;;;1.90;1.80;;;3.40;99.90;;;;;;4933359;28;20653;-62
2022/12/04 05:24:55;;;;;;;1.90;1.80;;;3.50;99.90;;;;;;4929407;29;20204;-62
2022/12/04 05:27:23;;;;;;;2.10;2.00;;;3.50;99.90;;;;;;4933862;29;20208;-63
2022/12/04 05:29:52;;;;;;;2.00;1.90;;;3.50;99.90;;;;;;4932215;29;20250;-64
2022/12/04 05:32:20;;;;;;;2.27;1.93;;;3.50;99.90;;;;;;4933380;29;20215;-62
2022/12/04 05:34:49;;;;;;;2.00;1.90;;;3.50;99.90;;;;;;4936495;29;20204;-65
2022/12/04 05:37:16;;;;;;;2.10;2.00;;;3.50;99.90;;;;;;4941864;28;20208;-65
2022/12/04 05:39:43;;;;;;;1.70;1.60;;;3.50;99.90;;;;;;4932531;29;20222;-63
2022/12/04 05:42:11;;;;;;;1.80;1.70;;;3.50;99.90;;;;;;4931947;28;20583;-64
2022/12/04 05:44:37;;;;;;;1.87;1.77;;;3.60;99.90;;;;;;4931819;29;20212;-63
2022/12/04 05:47:04;;;;;;;1.80;1.70;;;3.60;99.90;;;;;;4932565;28;20311;-64
2022/12/04 05:49:32;;;;;;;1.93;1.83;;;3.60;99.90;;;;;;4931319;29;20258;-62
2022/12/04 05:52:00;;;;;;;2.00;1.90;;;3.60;99.90;;;;;;4931741;29;20200;-63
2022/12/04 05:54:27;;;;;;;1.80;1.70;;;3.60;99.90;;;;;;4932116;28;20291;-65
2022/12/04 05:56:54;;;;;;;1.87;1.77;;;3.60;99.90;;;;;;4931895;29;20707;-64
2022/12/04 05:59:21;;;;;;;2.27;2.17;;;3.60;99.90;;;;;;4932219;28;20840;-64
2022/12/04 06:01:48;;;;;;;2.07;1.97;;;3.60;99.90;;;;;;4931660;29;20780;-63
2022/12/04 06:04:14;;;;;;;2.50;2.40;;;3.60;99.90;;;;;;4931679;28;20211;-63
2022/12/04 06:06:41;;;;;;;2.20;2.10;;;3.60;99.90;;;;;;4931726;29;20243;-63
2022/12/04 06:09:10;;;;;;;2.10;2.00;;;3.60;99.90;;;;;;4929270;29;20204;-63
2022/12/04 06:11:39;;;;;;;2.17;2.07;;;3.60;99.90;;;;;;4931289;29;20200;-65
2022/12/04 06:14:08;;;;;;;2.23;2.13;;;3.50;99.90;;;;;;4931048;29;20308;-62
2022/12/04 06:16:37;;;;;;;2.10;2.00;;;3.50;99.90;;;;;;4931213;29;20235;-63
2022/12/04 06:19:06;;;;;;;2.10;2.00;;;3.50;99.90;;;;;;4932502;29;20208;-61
2022/12/04 06:21:36;;;;;;;2.20;2.10;;;3.60;99.90;;;;;;4924651;28;20259;-65
2022/12/04 06:24:03;;;;;;;3.50;2.10;;;3.60;99.90;;;;;;4932585;29;20239;-64
2022/12/04 06:26:32;;;;;;;2.13;2.03;;;3.50;99.90;;;;;;4931704;28;20315;-62
2022/12/04 06:29:00;;;;;;;2.40;2.30;;;3.50;99.90;;;;;;4931648;29;20215;-63
2022/12/04 06:31:28;;;;;;;2.10;2.00;;;3.50;99.90;;;;;;4931298;28;20660;-65
2022/12/04 06:33:57;;;;;;;2.13;2.03;;;3.60;99.90;;;;;;4931554;29;20208;-65
2022/12/04 06:36:24;;;;;;;2.53;2.37;;;3.60;99.90;;;;;;4931505;29;20224;-66
2022/12/04 06:38:52;;;;;;;2.03;1.93;;;3.60;99.90;;;;;;4931736;29;20238;-62
2022/12/04 06:41:20;;;;;;;2.33;2.23;;;3.60;99.90;;;;;;4931660;29;20224;-63
2022/12/04 06:43:50;;;;;;;2.50;2.40;;;3.70;99.90;;;;;;4932312;28;20208;-64
2022/12/04 06:46:19;;;;;;;2.40;2.30;;;3.70;99.90;;;;;;4932064;29;20224;-63
2022/12/04 06:48:46;;;;;;;1.83;1.73;;;3.70;99.90;;;;;;4925819;29;20204;-63
2022/12/04 06:51:15;;;;;;;1.93;1.83;;;3.70;99.90;;;;;;4931439;29;20212;-65
2022/12/04 06:53:43;;;;;;;2.20;2.10;;;3.70;99.90;;;;;;4931164;29;20211;-64
2022/12/04 06:56:11;;;;;;;2.13;2.03;;;3.70;99.90;;;;;;4931528;28;20281;-65
2022/12/04 06:58:38;;;;;;;2.07;1.97;;;3.70;99.90;;;;;;4931164;29;20251;-65
2022/12/04 07:01:12;;;;;;;2.00;1.90;;;3.70;99.90;;;;;;4931259;28;20228;-63
2022/12/04 07:03:40;;;;;;;2.10;2.00;;;3.80;99.90;;;;;;4930753;29;20270;-63
2022/12/04 07:06:14;;;;;;;2.20;2.10;;;3.80;99.90;;;;;;4931594;28;20260;-66
2022/12/04 07:08:41;;;;;;;2.10;2.00;;;3.80;99.90;;;;;;4932116;29;20208;-63
2022/12/04 07:11:09;;;;;;;2.00;1.90;;;3.80;99.90;;;;;;4932092;29;20208;-63
2022/12/04 07:13:36;;;;;;;2.10;2.00;;;3.80;99.90;;;;;;4931808;29;20204;-62
2022/12/04 07:16:04;;;;;;;2.30;2.20;;;3.70;99.90;;;;;;4931484;29;20236;-64
2022/12/04 07:18:33;;;;;;;2.03;1.93;;;3.80;99.90;;;;;;4924475;28;20205;-64
2022/12/04 07:21:04;;;;;;;2.17;2.07;;;3.80;99.90;;;;;;4932454;29;20238;-63
2022/12/04 07:23:31;;;;;;;2.20;2.10;;;3.80;99.90;;;;;;4923999;29;20204;-63
2022/12/04 07:25:58;;;;;;;2.30;2.20;;;3.90;99.90;;;;;;4930985;29;20228;-64
2022/12/04 07:28:25;;;;;;;2.17;2.07;;;3.90;99.90;;;;;;4930873;28;20558;-64
2022/12/04 07:30:52;;;;;;;2.73;2.57;;;3.90;99.90;;;;;;4937691;29;20219;-62
2022/12/04 07:33:19;;;;;;;2.33;2.23;;;3.90;99.90;;;;;;4934027;29;20642;-65
2022/12/04 07:35:55;;;;;;;2.30;2.20;;;4.00;99.90;;;;;;4934749;28;20224;-63
2022/12/04 07:38:22;;;;;;;2.40;2.30;;;3.90;99.90;;;;;;4936700;29;20302;-64
2022/12/04 07:40:48;;;;;;;2.10;2.00;;;3.90;99.90;;;;;;4936317;29;20270;-63
2022/12/04 07:43:15;;;;;;;2.20;2.10;;;3.90;99.90;;;;;;4936103;28;20274;-64
2022/12/04 07:45:42;;;;;;;2.00;1.90;;;3.90;99.90;;;;;;4938244;28;20226;-64
2022/12/04 07:48:09;;;;;;;2.30;2.20;;;3.90;99.90;;;;;;4936533;28;20212;-65
2022/12/04 07:50:36;;;;;;;2.17;2.07;;;3.90;99.90;;;;;;4935395;29;20652;-64
2022/12/04 07:53:04;;;;;;;2.80;2.60;;;3.90;99.90;;;;;;4932340;29;20216;-63
2022/12/04 07:55:31;;;;;;;2.50;2.30;;;3.80;99.90;;;;;;4928259;28;20296;-62
2022/12/04 07:57:58;;;;;;;2.13;2.03;;;3.70;99.90;;;;;;4934126;28;20291;-63
2022/12/04 08:00:24;;;;;;;2.60;2.50;;;3.70;99.90;;;;;;4934066;28;20292;-64
2022/12/04 08:02:52;;;;;;;2.30;2.20;;;3.70;99.90;;;;;;4930200;28;20319;-63
2022/12/04 08:05:19;;;;;;;2.60;2.50;;;3.80;99.90;;;;;;4930693;28;20681;-63
2022/12/04 08:07:46;;;;;;;2.73;2.60;;;3.90;99.90;;;;;;4932572;29;20208;-63
2022/12/04 08:10:14;;;;;;;2.37;2.27;;;3.90;99.90;;;;;;4932489;28;20222;-63
2022/12/04 08:12:41;;;;;;;2.33;2.23;;;4.00;99.90;;;;;;4930773;28;20222;-65
2022/12/04 08:15:09;;;;;;;2.53;2.43;;;4.00;99.90;;;;;;4928093;28;20248;-65
2022/12/04 08:17:36;;;;;;;2.60;2.50;;;4.00;99.90;;;;;;4925475;28;20208;-63
2022/12/04 08:20:04;;;;;;;2.57;2.47;;;4.00;99.90;;;;;;4932147;28;20741;-64
2022/12/04 08:22:30;;;;;;;2.27;2.17;;;4.00;99.90;;;;;;4927363;29;20312;-64
2022/12/04 08:24:57;;;;;;;2.70;2.50;;;3.90;99.90;;;;;;4932151;28;20296;-63
2022/12/04 08:27:26;;;;;;;2.50;2.40;;;4.00;99.90;;;;;;4940059;29;20232;-66
2022/12/04 08:29:52;;;;;;;2.50;2.40;;;4.00;99.90;;;;;;4942062;29;20216;-64
2022/12/04 08:32:19;;;;;;;2.63;2.53;;;4.00;99.90;;;;;;4935171;28;20587;-63
2022/12/04 08:34:46;;;;;;;2.40;2.30;;;4.00;99.90;;;;;;4932910;29;20303;-62
2022/12/04 08:37:13;;;;;;;2.10;2.00;;;4.00;99.90;;;;;;4933313;29;20232;-65
2022/12/04 08:39:40;;;;;;;2.60;2.50;;;4.00;99.90;;;;;;4932611;28;20318;-62
2022/12/04 08:42:06;;;;;;;2.33;2.23;;;4.10;99.90;;;;;;4931958;28;20228;-62
2022/12/04 08:44:34;;;;;;;2.67;2.47;;;4.10;99.90;;;;;;4941158;29;20215;-65
2022/12/04 08:47:01;;;;;;;2.80;2.60;;;4.10;99.90;;;;;;4943777;29;20251;-63
2022/12/04 08:49:29;;;;;;;2.40;2.30;;;4.10;99.90;;;;;;4941392;28;20239;-63
2022/12/04 08:51:55;;;;;;;2.30;2.20;;;4.10;99.90;;;;;;4944261;28;20201;-65
2022/12/04 08:54:22;;;;;;;2.30;2.20;;;4.20;99.90;;;;;;4932882;28;20212;-62
2022/12/04 08:56:49;;;;;;;2.47;2.37;;;4.20;99.90;;;;;;4930856;29;20220;-63
2022/12/04 08:59:16;;;;;;;2.40;2.30;;;4.30;99.90;;;;;;4931669;28;20212;-63
2022/12/04 09:01:44;;;;;;;2.40;2.30;;;4.30;99.90;;;;;;4930352;28;20783;-63
2022/12/04 09:04:11;;;;;;;2.90;2.70;;;4.40;99.90;;;;;;4931583;28;20204;-64
2022/12/04 09:06:38;;;;;;;2.53;2.43;;;4.40;99.90;;;;;;4934737;29;20327;-63
2022/12/04 09:09:04;;;;;;;2.57;2.47;;;4.40;99.90;;;;;;4933176;28;20208;-63
2022/12/04 09:11:31;;;;;;;2.63;2.53;;;4.40;99.90;;;;;;4933973;29;20204;-63
2022/12/04 09:13:58;;;;;;;3.10;2.90;;;4.50;99.90;;;;;;4931914;28;20223;-64
2022/12/04 09:16:25;;;;;;;2.50;2.40;;;4.60;99.90;;;;;;4934604;28;20738;-63
2022/12/04 09:18:54;;;;;;;2.70;2.60;;;4.60;99.90;;;;;;4935090;29;20235;-63
2022/12/04 09:21:22;;;;;;;2.67;2.53;;;4.70;99.90;;;;;;4934807;29;20695;-62
2022/12/04 09:23:50;;;;;;;2.60;2.50;;;4.80;99.90;;;;;;4934949;29;20498;-61
2022/12/04 09:26:20;;;;;;;2.60;2.50;;;4.80;99.90;;;;;;4933025;29;20651;-65
2022/12/04 09:28:48;;;;;;;2.63;2.53;;;4.90;99.90;;;;;;4954435;28;20252;-64
2022/12/04 09:31:15;;;;;;;2.50;2.40;;;4.90;99.90;;;;;;4944376;28;20303;-62
2022/12/04 09:33:42;;;;;;;3.00;2.80;;;5.00;99.90;;;;;;4933253;29;20259;-62
2022/12/04 09:36:14;;;;;;;2.87;2.67;;;5.00;99.90;;;;;;4934494;28;20232;-62
2022/12/04 09:38:43;;;;;;;3.07;2.87;;;5.00;99.90;;;;;;4935554;28;20274;-63
2022/12/04 09:41:40;;;;;;;2.97;2.77;;;5.10;99.90;;;;;;4922815;28;20208;-63
2022/12/04 09:44:10;;;;;;;3.23;3.03;;;5.10;99.90;;;;;;4925181;29;20253;-62
2022/12/04 09:46:41;;;;;;;3.37;3.17;;;5.20;99.90;;;;;;4934010;29;20256;-64
2022/12/04 09:49:15;;;;;;;3.50;3.30;;;5.20;99.90;;;;;;4938501;28;20796;-62
2022/12/04 09:51:44;;;;;;;3.20;3.00;;;5.30;99.90;;;;;;4935392;28;20207;-61
2022/12/04 09:54:16;;;;;;;3.40;3.20;;;5.30;99.90;;;;;;4946093;29;20251;-64
2022/12/04 09:56:48;;;;;;;3.00;2.80;;;5.30;99.90;;;;;;4929683;28;20220;-65
2022/12/04 09:59:18;;;;;;;3.20;3.00;;;5.30;99.90;;;;;;4933302;28;20294;-64
2022/12/04 10:01:48;;;;;;;2.90;2.67;;;5.30;99.90;;;;;;4933186;29;20238;-62
2022/12/04 10:04:16;;;;;;;2.90;2.80;;;5.40;99.90;;;;;;4932633;28;20228;-65
2022/12/04 10:06:51;;;;;;;3.00;2.80;;;5.40;99.90;;;;;;4932574;29;20315;-63
2022/12/04 10:09:22;;;;;;;2.90;2.70;;;5.50;99.90;;;;;;4933693;28;20212;-63
2022/12/04 10:11:56;;;;;;;3.00;2.83;;;5.50;99.90;;;;;;4933039;29;20296;-63
2022/12/04 10:14:45;;;;;;;3.00;2.80;;;5.50;99.90;;;;;;4933651;29;20218;-62
2022/12/04 10:17:27;;;;;;;2.73;2.63;;;5.50;99.90;;;;;;4933132;28;20331;-63
2022/12/04 10:20:03;;;;;;;3.10;2.90;;;5.50;99.90;;;;;;4929118;28;20204;-63
2022/12/04 10:22:40;;;;;;;3.00;2.80;;;5.50;99.90;;;;;;4927395;28;20234;-63
2022/12/04 10:25:15;;;;;;;2.60;2.50;;;5.50;99.90;;;;;;4933535;28;20239;-64
2022/12/04 10:27:48;;;;;;;3.00;2.80;;;5.50;99.90;;;;;;4934443;29;20211;-64
2022/12/04 10:30:19;;;;;;;2.60;2.50;;;5.50;99.90;;;;;;4933086;29;20239;-60
2022/12/04 10:32:48;;;;;;;2.97;2.77;;;5.60;99.90;;;;;;4933191;29;20260;-64
2022/12/04 10:35:20;;;;;;;2.53;2.43;;;5.60;99.90;;;;;;4933271;28;20732;-63
2022/12/04 10:37:53;;;;;;;2.67;2.57;;;5.60;99.90;;;;;;4933371;28;20565;-62
2022/12/04 10:40:25;;;;;;;2.73;2.63;;;5.60;99.90;;;;;;4932054;28;20208;-64
2022/12/04 10:42:57;;;;;;;2.93;2.83;;;5.60;99.90;;;;;;4934399;29;20227;-64
2022/12/04 10:45:25;;;;;;;3.00;2.80;;;5.50;99.90;;;;;;4932339;29;20298;-63
2022/12/04 10:47:53;;;;;;;2.73;2.53;;;5.30;99.90;;;;;;4932747;29;20204;-63
2022/12/04 10:50:23;;;;;;;3.00;2.80;;;5.20;99.90;;;;;;4933117;29;20212;-62
2022/12/04 10:52:51;;;;;;;2.93;2.80;;;5.20;99.90;;;;;;4933530;28;20207;-62
2022/12/04 10:55:29;;;;;;;2.70;2.60;;;5.10;99.90;;;;;;4933486;29;20381;-63
2022/12/04 10:57:55;;;;;;;2.40;2.30;;;5.10;99.90;;;;;;4932491;29;20204;-62
2022/12/04 11:00:28;;;;;;;2.93;2.73;;;5.20;99.90;;;;;;4933020;29;20294;-63
2022/12/04 11:02:58;;;;;;;2.90;2.70;;;5.20;99.90;;;;;;4933576;29;20235;-65
2022/12/04 11:05:28;;;;;;;2.73;2.63;;;5.20;99.90;;;;;;4932631;29;20575;-63
2022/12/04 11:07:58;;;;;;;3.00;2.90;;;5.20;99.90;;;;;;4932803;29;20298;-63
2022/12/04 11:10:31;;;;;;;2.77;2.63;;;5.30;99.90;;;;;;4933513;29;20520;-63
2022/12/04 11:13:00;;;;;;;2.83;2.67;;;5.30;99.90;;;;;;4932680;28;20200;-63
2022/12/04 11:15:27;;;;;;;3.17;2.97;;;5.30;99.90;;;;;;4931512;28;20242;-63
2022/12/04 11:17:54;;;;;;;2.93;2.73;;;5.20;99.90;;;;;;4932057;28;20204;-63
2022/12/04 11:20:23;;;;;;;2.70;2.60;;;5.20;99.90;;;;;;4931588;29;20560;-62
2022/12/04 11:22:52;;;;;;;2.97;2.77;;;5.20;99.90;;;;;;4931637;29;20232;-64
2022/12/04 11:25:22;;;;;;;2.60;2.50;;;5.30;99.90;;;;;;4931813;28;20667;-64
2022/12/04 11:27:51;;;;;;;2.67;2.57;;;5.30;99.90;;;;;;4931473;29;20230;-63
2022/12/04 11:30:21;;;;;;;3.10;2.90;;;5.50;99.90;;;;;;4931731;29;20274;-63
2022/12/04 11:32:48;;;;;;;3.30;3.10;;;5.30;99.90;;;;;;4931209;29;20266;-62
2022/12/04 11:35:20;;;;;;;3.20;3.00;;;5.20;99.90;;;;;;4931551;29;20250;-62
2022/12/04 11:37:55;;;;;;;3.23;3.03;;;5.00;99.90;;;;;;4933218;29;20200;-62
2022/12/04 11:40:25;;;;;;;2.77;2.67;;;4.90;99.90;;;;;;4931520;28;20346;-62
2022/12/04 11:43:04;;;;;;;3.43;3.17;;;4.90;99.90;;;;;;4932214;29;20224;-64
2022/12/04 11:45:32;;;;;;;3.07;2.87;;;4.80;99.90;;;;;;4925108;29;20227;-63
2022/12/04 11:48:01;;;;;;;2.90;2.77;;;4.80;99.90;;;;;;4932050;29;20224;-64
2022/12/04 11:50:36;;;;;;;3.10;2.90;;;4.90;99.90;;;;;;4925223;28;20200;-63
2022/12/04 11:53:13;;;;;;;3.37;3.10;;;4.90;99.90;;;;;;4933827;29;20241;-63
2022/12/04 11:55:59;;;;;;;3.37;3.17;;;4.90;99.90;;;;;;4928504;29;20715;-63
2022/12/04 11:58:51;;;;;;;3.03;2.90;;;4.80;99.90;;;;;;4932319;29;20230;-62
2022/12/04 12:01:28;;;;;;;3.27;3.07;;;4.90;99.90;;;;;;4939135;28;20208;-64
2022/12/04 12:04:11;;;;;;;3.10;2.90;;;4.70;99.90;;;;;;4935439;29;20570;-64
2022/12/04 12:06:42;;;;;;;3.37;3.10;;;4.70;99.90;;;;;;4924912;28;20238;-64
2022/12/04 12:09:20;;;;;;;2.90;2.80;;;4.70;99.90;;;;;;4932228;28;20588;-62
2022/12/04 12:11:55;;;;;;;2.70;2.60;;;4.90;99.90;;;;;;4935022;29;20214;-62
2022/12/04 12:14:32;;;;;;;2.87;2.67;;;4.90;99.90;;;;;;4935893;29;20299;-63
2022/12/04 12:17:10;;;;;;;3.33;3.13;;;5.00;99.90;;;;;;4933765;29;20247;-61
2022/12/04 12:20:06;;;;;;;3.37;3.17;;;4.90;99.90;;;;;;4932896;29;20296;-62
2022/12/04 12:22:52;;;;;;;3.20;3.00;;;4.80;99.90;;;;;;4925842;29;20285;-63
2022/12/04 12:25:23;;;;;;;3.03;2.83;;;4.80;99.90;;;;;;4931892;28;20228;-63
2022/12/04 12:28:05;;;;;;;3.40;3.20;;;4.90;99.90;;;;;;4932822;29;20212;-62
2022/12/04 12:30:44;;;;;;;2.70;2.60;;;4.90;99.90;;;;;;4926232;29;20204;-63
2022/12/04 12:33:18;;;;;;;3.23;3.03;;;5.00;99.90;;;;;;4932578;28;20206;-62
2022/12/04 12:35:52;;;;;;;2.97;2.83;;;4.90;99.90;;;;;;4932320;29;20223;-63
2022/12/04 12:38:23;;;;;;;3.10;2.90;;;5.00;99.90;;;;;;4932316;29;20632;-64
2022/12/04 12:40:54;;;;;;;3.37;3.17;;;5.00;99.90;;;;;;4936465;29;20297;-64
2022/12/04 12:43:28;;;;;;;3.23;3.03;;;5.00;99.90;;;;;;4936157;29;20224;-62
2022/12/04 12:46:00;;;;;;;3.47;3.27;;;5.00;99.90;;;;;;4937760;29;20224;-64
2022/12/04 12:48:32;;;;;;;3.07;2.87;;;5.00;99.90;;;;;;4932297;29;20267;-64
2022/12/04 12:51:02;;;;;;;3.13;2.93;;;5.10;99.90;;;;;;4938173;29;20205;-63
2022/12/04 12:53:34;;;;;;;3.50;3.30;;;5.00;99.90;;;;;;4934746;29;20227;-62
2022/12/04 12:56:03;;;;;;;3.20;3.00;;;5.10;99.90;;;;;;4937089;29;20303;-62
2022/12/04 12:58:38;;;;;;;3.30;3.10;;;5.10;99.90;;;;;;4933850;28;20216;-62
2022/12/04 13:01:11;;;;;;;3.03;2.83;;;5.10;99.90;;;;;;4937042;29;20639;-62
2022/12/04 13:03:43;;;;;;;3.20;3.00;;;5.10;99.90;;;;;;4936263;29;20247;-63
2022/12/04 13:06:15;;;;;;;3.10;2.90;;;5.00;99.90;;;;;;4936765;28;20231;-64
2022/12/04 13:08:49;;;;;;;3.13;2.93;;;5.00;99.90;;;;;;4937151;29;20204;-64
2022/12/04 13:11:19;;;;;;;3.23;3.03;;;5.00;99.90;;;;;;4936533;28;20207;-64
2022/12/04 13:13:51;;;;;;;3.23;3.03;;;5.00;99.90;;;;;;4936165;28;20223;-64
2022/12/04 13:16:23;;;;;;;3.37;3.07;;;5.00;99.90;;;;;;4935345;29;20235;-63
2022/12/04 13:18:56;;;;;;;3.40;3.20;;;5.00;99.90;;;;;;4936991;29;20204;-62
2022/12/04 13:21:31;;;;;;;3.70;3.50;;;4.90;99.90;;;;;;4938853;29;20214;-62
2022/12/04 13:24:26;;;;;;;3.23;3.03;;;5.00;99.90;;;;;;4935078;29;20266;-63